createdAt,value
2023-02-14T00:02:27.141Z,100.00
2023-02-14T00:05:00.626Z,100.00
2023-02-14T00:07:29.091Z,100.00
2023-02-14T00:09:57.283Z,100.00
2023-02-14T00:12:26.454Z,100.00
2023-02-14T00:15:13.237Z,100.00
2023-02-14T00:17:41.633Z,100.00
2023-02-14T00:20:10.678Z,100.00
2023-02-14T00:22:44.417Z,100.00
2023-02-14T00:25:13.015Z,100.00
2023-02-14T00:27:41.802Z,100.00
2023-02-14T00:30:11.987Z,100.00
2023-02-14T00:32:46.275Z,100.00
2023-02-14T00:35:14.501Z,100.00
2023-02-14T00:37:47.182Z,100.00
2023-02-14T00:40:15.590Z,100.00
2023-02-14T00:42:43.919Z,100.00
2023-02-14T00:45:12.462Z,100.00
2023-02-14T00:47:45.790Z,100.00
2023-02-14T00:50:14.022Z,100.00
2023-02-14T00:52:42.265Z,100.00
2023-02-14T00:55:10.731Z,100.00
2023-02-14T00:57:44.083Z,100.00
2023-02-14T01:00:13.780Z,100.00
2023-02-14T01:02:42.305Z,100.00
2023-02-14T01:05:10.734Z,100.00
2023-02-14T01:07:38.987Z,100.00
2023-02-14T01:10:09.908Z,100.00
2023-02-14T01:12:44.295Z,100.00
2023-02-14T01:15:12.681Z,100.00
2023-02-14T01:17:42.358Z,100.00
2023-02-14T01:20:10.989Z,100.00
2023-02-14T01:22:39.270Z,100.00
2023-02-14T01:25:07.860Z,100.00
2023-02-14T01:27:36.280Z,100.00
2023-02-14T01:30:05.170Z,100.00
2023-02-14T01:32:33.654Z,100.00
2023-02-14T01:35:18.161Z,100.00
2023-02-14T01:37:53.044Z,100.00
2023-02-14T01:40:21.450Z,100.00
2023-02-14T01:42:51.341Z,100.00
2023-02-14T01:45:21.382Z,100.00
2023-02-14T01:47:57.359Z,100.00
2023-02-14T01:50:29.138Z,100.00
2023-02-14T01:53:08.508Z,100.00
2023-02-14T01:55:40.921Z,100.00
2023-02-14T01:58:11.460Z,100.00
2023-02-14T02:01:00.243Z,100.00
2023-02-14T02:03:56.703Z,100.00
2023-02-14T02:06:47.313Z,100.00
2023-02-14T02:09:29.205Z,100.00
2023-02-14T02:11:57.671Z,100.00
2023-02-14T02:14:31.560Z,100.00
2023-02-14T02:17:33.592Z,100.00
2023-02-14T02:20:36.372Z,100.00
2023-02-14T02:23:21.624Z,100.00
2023-02-14T02:26:05.934Z,100.00
2023-02-14T02:28:40.353Z,100.00
2023-02-14T02:32:07.448Z,100.00
2023-02-14T02:35:09.027Z,100.00
2023-02-14T02:38:14.521Z,100.00
2023-02-14T02:41:01.376Z,100.00
2023-02-14T02:43:37.285Z,100.00
2023-02-14T02:46:40.231Z,100.00
2023-02-14T02:49:52.108Z,100.00
2023-02-14T02:58:53.623Z,100.00
2023-02-14T03:01:39.707Z,100.00
2023-02-14T03:04:40.529Z,100.00
2023-02-14T03:07:35.978Z,100.00
2023-02-14T03:10:33.633Z,100.00
2023-02-14T03:13:03.512Z,100.00
2023-02-14T03:15:56.857Z,100.00
2023-02-14T03:19:08.513Z,100.00
2023-02-14T03:21:45.978Z,100.00
2023-02-14T03:24:23.270Z,100.00
2023-02-14T03:26:55.186Z,100.00
2023-02-14T03:29:37.391Z,100.00
2023-02-14T03:32:20.977Z,100.00
2023-02-14T03:35:11.244Z,100.00
2023-02-14T03:37:54.335Z,100.00
2023-02-14T03:40:36.627Z,100.00
2023-02-14T03:43:17.418Z,100.00
2023-02-14T03:45:49.596Z,100.00
2023-02-14T03:48:18.532Z,100.00
2023-02-14T03:50:50.713Z,100.00
2023-02-14T03:53:22.651Z,100.00
2023-02-14T03:56:08.985Z,100.00
2023-02-14T03:58:44.469Z,100.00
2023-02-14T04:01:43.779Z,100.00
2023-02-14T04:04:12.269Z,100.00
2023-02-14T04:06:42.728Z,100.00
2023-02-14T04:09:19.582Z,100.00
2023-02-14T04:11:52.386Z,100.00
2023-02-14T04:14:23.541Z,100.00
2023-02-14T04:17:13.147Z,100.00
2023-02-14T04:19:49.552Z,100.00
2023-02-14T04:22:21.592Z,100.00
2023-02-14T04:24:58.490Z,100.00
2023-02-14T04:27:29.899Z,100.00
2023-02-14T04:30:07.585Z,100.00
2023-02-14T04:32:39.487Z,100.00
2023-02-14T04:35:11.501Z,100.00
2023-02-14T04:37:43.488Z,100.00
2023-02-14T04:40:22.521Z,100.00
2023-02-14T04:42:59.455Z,100.00
2023-02-14T04:45:30.640Z,100.00
2023-02-14T04:48:03.466Z,100.00
2023-02-14T04:50:35.513Z,100.00
2023-02-14T04:53:07.953Z,100.00
2023-02-14T04:55:40.130Z,100.00
2023-02-14T04:58:16.425Z,100.00
2023-02-14T05:00:53.706Z,100.00
2023-02-14T05:03:26.076Z,100.00
2023-02-14T05:05:56.938Z,100.00
2023-02-14T05:16:30.823Z,100.00
2023-02-14T05:19:03.310Z,100.00
2023-02-14T05:21:32.751Z,100.00
2023-02-14T05:24:01.016Z,100.00
2023-02-14T05:26:28.289Z,100.00
2023-02-14T05:28:55.837Z,100.00
2023-02-14T05:31:23.028Z,100.00
2023-02-14T05:33:50.424Z,100.00
2023-02-14T05:36:17.318Z,100.00
2023-02-14T05:38:45.100Z,100.00
2023-02-14T05:41:12.213Z,100.00
2023-02-14T05:43:39.137Z,100.00
2023-02-14T05:46:06.374Z,100.00
2023-02-14T05:48:35.178Z,100.00
2023-02-14T05:51:11.749Z,100.00
2023-02-14T05:53:38.695Z,100.00
2023-02-14T05:56:05.715Z,100.00
2023-02-14T05:58:33.512Z,100.00
2023-02-14T06:01:00.892Z,100.00
2023-02-14T06:03:28.017Z,100.00
2023-02-14T06:05:55.074Z,100.00
2023-02-14T06:08:24.742Z,100.00
2023-02-14T06:10:51.956Z,100.00
2023-02-14T06:13:24.479Z,100.00
2023-02-14T06:15:51.550Z,100.00
2023-02-14T06:18:18.383Z,100.00
2023-02-14T06:20:45.782Z,100.00
2023-02-14T06:23:13.504Z,100.00
2023-02-14T06:25:40.664Z,100.00
2023-02-14T06:28:07.832Z,100.00
2023-02-14T06:30:35.932Z,100.00
2023-02-14T06:33:03.012Z,100.00
2023-02-14T06:35:31.624Z,100.00
2023-02-14T06:37:59.382Z,100.00
2023-02-14T06:40:26.331Z,100.00
2023-02-14T06:42:53.679Z,100.00
2023-02-14T06:45:20.693Z,100.00
2023-02-14T06:47:47.748Z,100.00
2023-02-14T06:50:14.821Z,100.00
2023-02-14T06:52:44.224Z,100.00
2023-02-14T06:55:13.345Z,100.00
2023-02-14T06:57:40.311Z,100.00
2023-02-14T07:00:07.640Z,100.00
2023-02-14T07:02:35.779Z,100.00
2023-02-14T07:05:03.040Z,100.00
2023-02-14T07:07:30.640Z,100.00
2023-02-14T07:10:00.295Z,100.00
2023-02-14T07:12:27.299Z,100.00
2023-02-14T07:14:54.186Z,100.00
2023-02-14T07:17:21.301Z,100.00
2023-02-14T07:19:51.476Z,100.00
2023-02-14T07:22:18.416Z,100.00
2023-02-14T07:24:45.563Z,100.00
2023-02-14T07:27:12.611Z,100.00
2023-02-14T07:29:42.428Z,100.00
2023-02-14T07:32:12.829Z,100.00
2023-02-14T07:34:40.825Z,100.00
2023-02-14T07:37:07.971Z,100.00
2023-02-14T07:39:35.156Z,100.00
2023-02-14T07:42:02.319Z,100.00
2023-02-14T07:44:29.962Z,100.00
2023-02-14T07:46:56.977Z,100.00
2023-02-14T07:49:24.030Z,100.00
2023-02-14T07:51:51.075Z,100.00
2023-02-14T07:54:20.313Z,100.00
2023-02-14T07:56:52.435Z,100.00
2023-02-14T07:59:19.428Z,100.00
2023-02-14T08:01:47.792Z,100.00
2023-02-14T08:04:16.629Z,100.00
2023-02-14T08:06:43.697Z,100.00
2023-02-14T08:09:10.892Z,100.00
2023-02-14T08:12:00.429Z,100.00
2023-02-14T08:14:27.572Z,100.00
2023-02-14T08:16:55.234Z,100.00
2023-02-14T08:19:22.356Z,100.00
2023-02-14T08:21:49.288Z,100.00
2023-02-14T08:24:16.589Z,100.00
2023-02-14T08:26:43.738Z,100.00
2023-02-14T08:29:10.594Z,100.00
2023-02-14T08:31:38.174Z,100.00
2023-02-14T08:34:06.823Z,100.00
2023-02-14T08:36:37.562Z,100.00
2023-02-14T08:39:05.049Z,100.00
2023-02-14T08:41:32.880Z,100.00
2023-02-14T08:44:00.031Z,100.00
2023-02-14T08:46:27.183Z,100.00
2023-02-14T08:48:56.161Z,100.00
2023-02-14T08:51:23.214Z,100.00
2023-02-14T08:53:51.294Z,100.00
2023-02-14T08:56:20.900Z,100.00
2023-02-14T08:58:50.794Z,100.00
2023-02-14T09:01:17.912Z,100.00
2023-02-14T09:03:49.385Z,100.00
2023-02-14T09:06:16.705Z,100.00
2023-02-14T09:08:43.671Z,100.00
2023-02-14T09:11:17.939Z,100.00
2023-02-14T09:13:45.649Z,100.00
2023-02-14T09:16:13.222Z,100.00
2023-02-14T09:18:42.336Z,100.00
2023-02-14T09:21:11.936Z,100.00
2023-02-14T09:23:38.995Z,100.00
2023-02-14T09:26:09.111Z,100.00
2023-02-14T09:28:36.293Z,100.00
2023-02-14T09:31:12.760Z,100.00
2023-02-14T09:33:42.620Z,100.00
2023-02-14T09:36:28.274Z,100.00
2023-02-14T09:38:55.111Z,100.00
2023-02-14T09:41:25.367Z,100.00
2023-02-14T09:44:02.166Z,100.00
2023-02-14T09:46:29.363Z,100.00
2023-02-14T09:48:56.274Z,100.00
2023-02-14T09:51:26.283Z,100.00
2023-02-14T09:54:11.043Z,100.00
2023-02-14T09:57:03.901Z,100.00
2023-02-14T09:59:44.259Z,100.00
2023-02-14T10:02:34.280Z,100.00
2023-02-14T10:05:15.333Z,100.00
2023-02-14T10:08:05.919Z,100.00
2023-02-14T10:10:38.099Z,100.00
2023-02-14T10:13:29.893Z,100.00
2023-02-14T10:16:04.235Z,100.00
2023-02-14T10:18:42.312Z,100.00
2023-02-14T10:21:22.901Z,100.00
2023-02-14T10:23:53.429Z,100.00
2023-02-14T10:34:17.290Z,100.00
2023-02-14T10:37:01.404Z,100.00
2023-02-14T10:39:45.187Z,100.00
2023-02-14T10:42:53.768Z,100.00
2023-02-14T10:45:49.750Z,100.00
2023-02-14T10:48:39.287Z,100.00
2023-02-14T10:51:23.954Z,100.00
2023-02-14T10:54:20.302Z,100.00
2023-02-14T11:04:53.421Z,100.00
2023-02-14T11:07:21.084Z,100.00
2023-02-14T11:09:52.746Z,94.93
2023-02-14T11:12:39.332Z,84.23
2023-02-14T11:15:11.528Z,82.25
2023-02-14T11:17:38.621Z,82.80
2023-02-14T11:20:18.217Z,80.56
2023-02-14T11:22:46.072Z,77.28
2023-02-14T11:25:25.333Z,77.44
2023-02-14T11:28:02.214Z,75.43
2023-02-14T11:30:31.510Z,75.28
2023-02-14T11:32:59.870Z,75.30
2023-02-14T11:35:33.421Z,77.57
2023-02-14T11:38:20.688Z,76.57
2023-02-14T11:40:47.584Z,78.97
2023-02-14T11:43:15.102Z,80.40
2023-02-14T11:45:43.100Z,79.84
2023-02-14T11:48:39.555Z,80.93
2023-02-14T11:51:08.821Z,83.24
2023-02-14T11:53:46.888Z,85.44
2023-02-14T11:56:14.653Z,86.64
2023-02-14T11:58:56.168Z,87.27
2023-02-14T12:01:27.605Z,86.59
2023-02-14T12:03:56.600Z,87.30
2023-02-14T12:06:34.608Z,87.71
2023-02-14T12:09:24.908Z,88.97
2023-02-14T12:12:19.182Z,87.28
2023-02-14T12:14:48.654Z,86.54
2023-02-14T12:17:31.211Z,86.38
2023-02-14T12:20:14.656Z,86.73
2023-02-14T12:23:05.069Z,87.45
2023-02-14T12:25:43.193Z,87.75
2023-02-14T12:28:14.043Z,88.90
2023-02-14T12:30:42.316Z,89.51
2023-02-14T12:33:20.281Z,89.30
2023-02-14T12:35:52.135Z,88.79
2023-02-14T12:38:42.175Z,88.27
2023-02-14T12:41:29.327Z,87.53
2023-02-14T12:44:11.133Z,87.51
2023-02-14T12:46:45.600Z,87.29
2023-02-14T12:49:23.686Z,86.71
2023-02-14T12:51:56.642Z,87.38
2023-02-14T12:55:03.907Z,87.37
2023-02-14T12:57:41.388Z,87.25
2023-02-14T13:00:41.295Z,87.04
2023-02-14T13:03:27.495Z,87.09
2023-02-14T13:06:23.233Z,86.78
2023-02-14T13:09:01.557Z,86.71
2023-02-14T13:11:38.851Z,86.66
2023-02-14T13:14:13.331Z,86.61
2023-02-14T13:17:05.843Z,86.83
2023-02-14T13:19:36.917Z,87.08
2023-02-14T13:22:05.628Z,87.83
2023-02-14T13:24:46.439Z,88.30
2023-02-14T13:27:52.748Z,88.65
2023-02-14T13:30:32.287Z,89.68
2023-02-14T13:33:07.961Z,89.79
2023-02-14T13:35:36.515Z,89.82
2023-02-14T13:38:08.784Z,90.28
2023-02-14T13:40:38.501Z,90.53
2023-02-14T13:43:06.762Z,90.90
2023-02-14T13:45:35.452Z,92.07
2023-02-14T13:48:16.531Z,92.90
2023-02-14T13:51:04.671Z,93.37
2023-02-14T13:53:49.562Z,94.02
2023-02-14T13:56:18.226Z,94.74
2023-02-14T13:59:04.938Z,95.59
2023-02-14T14:01:48.396Z,96.66
2023-02-14T14:04:28.920Z,97.51
2023-02-14T14:07:00.474Z,98.32
2023-02-14T14:09:43.136Z,98.87
2023-02-14T14:12:26.464Z,99.08
2023-02-14T14:15:05.191Z,99.68
2023-02-14T14:17:50.733Z,100.00
2023-02-14T14:20:23.408Z,100.00
2023-02-14T14:22:54.367Z,100.00
2023-02-14T14:25:37.485Z,100.00
2023-02-14T14:28:13.729Z,100.00
2023-02-14T14:30:44.741Z,100.00
2023-02-14T14:33:23.408Z,100.00
2023-02-14T14:36:02.935Z,100.00
2023-02-14T14:38:32.567Z,100.00
2023-02-14T14:41:01.528Z,100.00
2023-02-14T14:43:34.416Z,100.00
2023-02-14T14:46:03.606Z,100.00
2023-02-14T14:48:43.481Z,100.00
2023-02-14T14:51:35.841Z,100.00
2023-02-14T14:54:14.737Z,100.00
2023-02-14T14:56:56.980Z,100.00
2023-02-14T14:59:34.931Z,100.00
2023-02-14T15:02:04.238Z,100.00
2023-02-14T15:04:33.874Z,100.00
2023-02-14T15:07:33.156Z,100.00
2023-02-14T15:10:01.732Z,100.00
2023-02-14T15:12:49.159Z,100.00
2023-02-14T15:15:18.263Z,100.00
2023-02-14T15:17:51.548Z,100.00
2023-02-14T15:20:21.799Z,100.00
2023-02-14T15:22:51.380Z,100.00
2023-02-14T15:25:26.196Z,100.00
2023-02-14T15:27:54.493Z,100.00
2023-02-14T15:30:36.291Z,100.00
2023-02-14T15:33:05.933Z,100.00
2023-02-14T15:35:38.466Z,100.00
2023-02-14T15:38:07.258Z,100.00
2023-02-14T15:40:35.646Z,100.00
2023-02-14T15:43:18.966Z,100.00
2023-02-14T15:45:51.238Z,100.00
2023-02-14T15:48:33.633Z,100.00
2023-02-14T15:51:02.600Z,100.00
2023-02-14T15:53:47.496Z,100.00
2023-02-14T15:56:21.413Z,100.00
2023-02-14T15:58:50.087Z,100.00
2023-02-14T16:01:21.865Z,100.00
2023-02-14T16:03:52.165Z,100.00
2023-02-14T16:06:44.714Z,100.00
2023-02-14T16:09:27.078Z,100.00
2023-02-14T16:11:58.257Z,100.00
2023-02-14T16:14:37.601Z,100.00
2023-02-14T16:17:14.775Z,100.00
2023-02-14T16:19:45.153Z,100.00
2023-02-14T16:22:25.156Z,100.00
2023-02-14T16:24:54.244Z,100.00
2023-02-14T16:27:23.754Z,100.00
2023-02-14T16:29:52.491Z,100.00
2023-02-14T16:32:22.652Z,100.00
2023-02-14T16:34:51.239Z,100.00
2023-02-14T16:37:24.269Z,100.00
2023-02-14T16:39:54.776Z,100.00
2023-02-14T16:42:23.442Z,100.00
2023-02-14T16:44:52.029Z,100.00
2023-02-14T16:47:28.027Z,100.00
2023-02-14T16:49:56.464Z,100.00
2023-02-14T16:52:27.304Z,100.00
2023-02-14T16:54:55.985Z,100.00
2023-02-14T16:57:44.376Z,100.00
2023-02-14T17:00:14.046Z,100.00
2023-02-14T17:02:44.252Z,100.00
2023-02-14T17:05:13.882Z,100.00
2023-02-14T17:07:43.070Z,100.00
2023-02-14T17:10:18.618Z,100.00
2023-02-14T17:12:47.745Z,100.00
2023-02-14T17:15:20.499Z,100.00
2023-02-14T17:17:49.916Z,100.00
2023-02-14T17:20:24.835Z,100.00
2023-02-14T17:22:55.773Z,100.00
2023-02-14T17:25:24.154Z,100.00
2023-02-14T17:27:53.150Z,100.00
2023-02-14T17:30:22.204Z,100.00
2023-02-14T17:32:51.334Z,100.00
2023-02-14T17:35:20.428Z,100.00
2023-02-14T17:37:49.688Z,100.00
2023-02-14T17:40:18.310Z,100.00
2023-02-14T17:42:46.998Z,100.00
2023-02-14T17:45:16.093Z,100.00
2023-02-14T17:47:46.028Z,100.00
2023-02-14T17:50:21.356Z,100.00
2023-02-14T17:52:56.274Z,100.00
2023-02-14T17:55:29.806Z,100.00
2023-02-14T17:57:58.076Z,100.00
2023-02-14T18:00:26.747Z,100.00
2023-02-14T18:02:55.749Z,100.00
2023-02-14T18:05:24.525Z,100.00
2023-02-14T18:07:53.725Z,100.00
2023-02-14T18:10:22.531Z,100.00
2023-02-14T18:12:51.918Z,100.00
2023-02-14T18:15:21.114Z,100.00
2023-02-14T18:17:50.873Z,100.00
2023-02-14T18:20:19.361Z,100.00
2023-02-14T18:22:47.696Z,100.00
2023-02-14T18:25:17.185Z,100.00
2023-02-14T18:27:50.786Z,100.00
2023-02-14T18:30:19.944Z,100.00
2023-02-14T18:32:48.826Z,100.00
2023-02-14T18:35:17.188Z,100.00
2023-02-14T18:37:45.534Z,100.00
2023-02-14T18:40:21.339Z,100.00
2023-02-14T18:42:55.293Z,100.00
2023-02-14T18:45:23.952Z,100.00
2023-02-14T18:47:52.660Z,100.00
2023-02-14T18:50:21.018Z,100.00
2023-02-14T18:52:49.209Z,100.00
2023-02-14T18:55:25.169Z,100.00
2023-02-14T18:58:23.462Z,100.00
2023-02-14T19:00:52.001Z,100.00
2023-02-14T19:03:20.614Z,100.00
2023-02-14T19:05:49.201Z,100.00
2023-02-14T19:08:20.551Z,100.00
2023-02-14T19:10:50.256Z,100.00
2023-02-14T19:13:36.993Z,100.00
2023-02-14T19:16:22.053Z,100.00
2023-02-14T19:18:53.426Z,100.00
2023-02-14T19:21:26.347Z,100.00
2023-02-14T19:24:01.705Z,100.00
2023-02-14T19:26:33.060Z,100.00
2023-02-14T19:29:05.131Z,100.00
2023-02-14T19:31:38.268Z,100.00
2023-02-14T19:34:12.536Z,100.00
2023-02-14T19:36:41.337Z,100.00
2023-02-14T19:39:11.040Z,100.00
2023-02-14T19:41:47.629Z,100.00
2023-02-14T19:44:17.243Z,100.00
2023-02-14T19:46:46.525Z,100.00
2023-02-14T19:49:24.837Z,100.00
2023-02-14T19:51:53.925Z,100.00
2023-02-14T19:54:25.372Z,100.00
2023-02-14T19:56:56.484Z,100.00
2023-02-14T19:59:25.719Z,100.00
2023-02-14T20:01:54.977Z,100.00
2023-02-14T20:04:30.470Z,100.00
2023-02-14T20:06:59.385Z,100.00
2023-02-14T20:09:28.238Z,100.00
2023-02-14T20:12:04.903Z,100.00
2023-02-14T20:14:47.098Z,100.00
2023-02-14T20:17:24.360Z,100.00
2023-02-14T20:19:53.185Z,100.00
2023-02-14T20:22:25.875Z,100.00
2023-02-14T20:24:54.652Z,100.00
2023-02-14T20:27:26.305Z,100.00
2023-02-14T20:29:55.572Z,100.00
2023-02-14T20:32:24.235Z,100.00
2023-02-14T20:34:53.078Z,100.00
2023-02-14T20:37:21.665Z,100.00
2023-02-14T20:39:50.127Z,100.00
2023-02-14T20:42:18.550Z,100.00
2023-02-14T20:44:47.821Z,100.00
2023-02-14T20:47:17.639Z,100.00
2023-02-14T20:49:46.593Z,100.00
2023-02-14T20:52:15.031Z,100.00
2023-02-14T20:54:43.591Z,100.00
2023-02-14T20:57:12.582Z,100.00
2023-02-14T20:59:44.870Z,100.00
2023-02-14T21:02:13.437Z,100.00
2023-02-14T21:04:42.329Z,100.00
2023-02-14T21:07:10.898Z,100.00
2023-02-14T21:09:40.010Z,100.00
2023-02-14T21:12:08.492Z,100.00
2023-02-14T21:14:37.155Z,100.00
2023-02-14T21:17:06.677Z,100.00
2023-02-14T21:19:35.410Z,100.00
2023-02-14T21:22:06.518Z,100.00
2023-02-14T21:24:34.907Z,100.00
2023-02-14T21:27:11.471Z,100.00
2023-02-14T21:29:45.887Z,100.00
2023-02-14T21:32:15.114Z,100.00
2023-02-14T21:34:43.663Z,100.00
2023-02-14T21:37:12.040Z,100.00
2023-02-14T21:39:40.933Z,100.00
2023-02-14T21:42:11.951Z,100.00
2023-02-14T21:44:59.911Z,100.00
2023-02-14T21:47:30.749Z,100.00
2023-02-14T21:50:18.174Z,100.00
2023-02-14T21:52:46.549Z,100.00
2023-02-14T21:55:16.167Z,100.00
2023-02-14T21:57:44.638Z,100.00
2023-02-14T22:00:18.951Z,100.00
2023-02-14T22:02:53.837Z,100.00
2023-02-14T22:05:22.178Z,100.00
2023-02-14T22:07:51.260Z,100.00
2023-02-14T22:10:19.637Z,100.00
2023-02-14T22:12:49.043Z,100.00
2023-02-14T22:15:18.094Z,100.00
2023-02-14T22:17:47.641Z,100.00
2023-02-14T22:20:17.044Z,100.00
2023-02-14T22:22:45.733Z,100.00
2023-02-14T22:25:19.330Z,100.00
2023-02-14T22:27:48.631Z,100.00
2023-02-14T22:30:21.452Z,100.00
2023-02-14T22:32:55.112Z,100.00
2023-02-14T22:35:28.815Z,100.00
2023-02-14T22:37:57.621Z,100.00
2023-02-14T22:40:26.185Z,100.00
2023-02-14T22:50:44.380Z,100.00
2023-02-14T22:53:13.374Z,100.00
2023-02-14T22:55:41.768Z,100.00
2023-02-14T22:58:10.544Z,100.00
2023-02-14T23:00:38.916Z,100.00
2023-02-14T23:03:17.419Z,100.00
2023-02-14T23:05:45.743Z,100.00
2023-02-14T23:08:13.976Z,100.00
2023-02-14T23:10:43.900Z,100.00
2023-02-14T23:13:30.628Z,100.00
2023-02-14T23:16:18.564Z,100.00
2023-02-14T23:19:08.836Z,100.00
2023-02-14T23:21:56.879Z,100.00
2023-02-14T23:24:25.765Z,100.00
2023-02-14T23:26:55.078Z,100.00
2023-02-14T23:29:23.277Z,100.00
2023-02-14T23:31:51.784Z,100.00
2023-02-14T23:34:21.225Z,100.00
2023-02-14T23:36:50.220Z,100.00
2023-02-14T23:39:18.608Z,100.00
2023-02-14T23:41:50.153Z,100.00
2023-02-14T23:44:20.892Z,100.00
2023-02-14T23:46:55.759Z,100.00
2023-02-14T23:49:25.024Z,100.00
2023-02-14T23:51:55.552Z,100.00
2023-02-14T23:54:29.485Z,100.00
2023-02-14T23:56:57.934Z,100.00
2023-02-14T23:59:26.415Z,100.00
